JAL2123 RJOO-RJCH
Flight info
| Callsign | JAL2123 |
|---|---|
| Flight time | 1h 11m |
| Altitude | 37000 |
| Route | MINAC GUJYO Y13 AKITA Y131 HINAI Y113 TAXIR |
| Aircraft | E190/M-SDE3GILORVW/S |
Departure
| Time | 2026-05-04 02:43 |
|---|---|
| Airport | Osaka Itami International Airport (RJOO) |
Arrival
| Time | 2026-05-04 03:54 |
|---|---|
| Airport | Hakodate Airport (RJCH) |
| Time | Latitude | Longitude | Altitude | Speed | Heading |
|---|---|---|---|---|---|
| 2026-05-04 02:17 | 34.79269 | 135.43709 | 47 ft | 0 kts | 161° |
| 2026-05-04 02:32 | 34.79281 | 135.43703 | 45 ft | 2 kts | 161° |
| 2026-05-04 02:32 | 34.79296 | 135.43697 | 45 ft | 2 kts | 161° |
| 2026-05-04 02:33 | 34.79312 | 135.43691 | 44 ft | 2 kts | 161° |
| 2026-05-04 02:33 | 34.79328 | 135.43687 | 45 ft | 2 kts | 204° |
| 2026-05-04 02:33 | 34.79338 | 135.43696 | 45 ft | 0 kts | 231° |
| 2026-05-04 02:35 | 34.79331 | 135.43686 | 46 ft | 3 kts | 233° |
| 2026-05-04 02:35 | 34.79311 | 135.43643 | 47 ft | 8 kts | 241° |
| 2026-05-04 02:35 | 34.79272 | 135.43578 | 47 ft | 11 kts | 213° |
| 2026-05-04 02:35 | 34.79196 | 135.43577 | 47 ft | 12 kts | 168° |
| 2026-05-04 02:36 | 34.79098 | 135.43590 | 47 ft | 15 kts | 173° |
| 2026-05-04 02:36 | 34.79012 | 135.43673 | 44 ft | 17 kts | 134° |
| 2026-05-04 02:36 | 34.78918 | 135.43787 | 47 ft | 20 kts | 135° |
| 2026-05-04 02:36 | 34.78813 | 135.43912 | 47 ft | 22 kts | 135° |
| 2026-05-04 02:37 | 34.78708 | 135.44041 | 45 ft | 21 kts | 130° |
| 2026-05-04 02:37 | 34.78601 | 135.44171 | 47 ft | 22 kts | 137° |
| 2026-05-04 02:37 | 34.78487 | 135.44308 | 46 ft | 24 kts | 141° |
| 2026-05-04 02:37 | 34.78327 | 135.44334 | 46 ft | 24 kts | 181° |
| 2026-05-04 02:38 | 34.78162 | 135.44354 | 47 ft | 24 kts | 148° |
| 2026-05-04 02:38 | 34.78042 | 135.44496 | 47 ft | 25 kts | 135° |
| 2026-05-04 02:38 | 34.77915 | 135.44650 | 46 ft | 27 kts | 135° |
| 2026-05-04 02:38 | 34.77785 | 135.44808 | 45 ft | 24 kts | 134° |
| 2026-05-04 02:39 | 34.77670 | 135.44925 | 45 ft | 22 kts | 153° |
| 2026-05-04 02:39 | 34.77548 | 135.44994 | 47 ft | 16 kts | 155° |
| 2026-05-04 02:39 | 34.77491 | 135.45021 | 47 ft | 1 kts | 171° |
| 2026-05-04 02:41 | 34.77483 | 135.45020 | 48 ft | 3 kts | 187° |
| 2026-05-04 02:41 | 34.77453 | 135.45003 | 48 ft | 6 kts | 219° |
| 2026-05-04 02:41 | 34.77435 | 135.44949 | 50 ft | 7 kts | 264° |
| 2026-05-04 02:41 | 34.77456 | 135.44899 | 50 ft | 0 kts | 314° |
| 2026-05-04 02:42 | 34.77495 | 135.44853 | 47 ft | 29 kts | 315° |
| 2026-05-04 02:42 | 34.77798 | 135.44485 | 47 ft | 94 kts | 315° |
| 2026-05-04 02:42 | 34.78395 | 135.43754 | 70 ft | 146 kts | 315° |
| 2026-05-04 02:43 | 34.79180 | 135.42847 | 522 ft | 165 kts | 312° |
| 2026-05-04 02:43 | 34.80043 | 135.41833 | 1203 ft | 172 kts | 302° |
| 2026-05-04 02:43 | 34.80441 | 135.40575 | 2233 ft | 154 kts | 271° |
| 2026-05-04 02:43 | 34.80082 | 135.39329 | 2825 ft | 169 kts | 236° |
| 2026-05-04 02:44 | 34.79057 | 135.38492 | 3390 ft | 188 kts | 205° |
| 2026-05-04 02:44 | 34.77721 | 135.38470 | 4151 ft | 200 kts | 173° |
| 2026-05-04 02:44 | 34.76467 | 135.39310 | 4829 ft | 213 kts | 144° |
| 2026-05-04 02:44 | 34.75588 | 135.40807 | 5418 ft | 225 kts | 118° |
| 2026-05-04 02:45 | 34.75211 | 135.42678 | 6018 ft | 232 kts | 95° |
| 2026-05-04 02:45 | 34.75399 | 135.44688 | 6300 ft | 254 kts | 72° |
| 2026-05-04 02:45 | 34.76017 | 135.46850 | 6465 ft | 283 kts | 67° |
| 2026-05-04 02:45 | 34.76873 | 135.49098 | 6682 ft | 309 kts | 59° |
| 2026-05-04 02:46 | 34.77894 | 135.51456 | 7252 ft | 319 kts | 60° |
| 2026-05-04 02:46 | 34.78937 | 135.53876 | 7925 ft | 326 kts | 63° |
| 2026-05-04 02:46 | 34.79515 | 135.56555 | 8619 ft | 330 kts | 90° |
| 2026-05-04 02:46 | 34.79340 | 135.59328 | 9375 ft | 331 kts | 99° |
| 2026-05-04 02:47 | 34.79229 | 135.62157 | 10051 ft | 338 kts | 95° |
| 2026-05-04 02:47 | 34.79229 | 135.65100 | 10400 ft | 358 kts | 93° |
| 2026-05-04 02:47 | 34.79268 | 135.68200 | 10780 ft | 373 kts | 92° |
| 2026-05-04 02:47 | 34.79623 | 135.71375 | 11334 ft | 386 kts | 77° |
| 2026-05-04 02:48 | 34.80392 | 135.74542 | 11948 ft | 395 kts | 70° |
| 2026-05-04 02:48 | 34.81431 | 135.77673 | 12539 ft | 404 kts | 69° |
| 2026-05-04 02:48 | 34.82402 | 135.80912 | 13177 ft | 410 kts | 73° |
| 2026-05-04 02:48 | 34.83312 | 135.84233 | 13776 ft | 417 kts | 73° |
| 2026-05-04 02:49 | 34.84247 | 135.87606 | 14336 ft | 423 kts | 73° |
| 2026-05-04 02:49 | 34.85200 | 135.91014 | 14916 ft | 428 kts | 73° |
| 2026-05-04 02:49 | 34.86174 | 135.94478 | 15458 ft | 435 kts | 73° |
| 2026-05-04 02:49 | 34.87162 | 135.97987 | 16031 ft | 440 kts | 73° |
| 2026-05-04 02:50 | 34.88160 | 136.01526 | 16628 ft | 444 kts | 73° |
| 2026-05-04 02:50 | 34.89154 | 136.05061 | 17190 ft | 449 kts | 74° |
| 2026-05-04 02:50 | 34.90171 | 136.08675 | 17703 ft | 454 kts | 74° |
| 2026-05-04 02:50 | 34.91199 | 136.12328 | 18255 ft | 456 kts | 74° |
| 2026-05-04 02:51 | 34.92283 | 136.15985 | 18711 ft | 462 kts | 68° |
| 2026-05-04 02:51 | 34.94019 | 136.19287 | 19160 ft | 465 kts | 43° |
| 2026-05-04 02:51 | 34.96521 | 136.21712 | 19692 ft | 458 kts | 26° |
| 2026-05-04 02:51 | 34.99199 | 136.23845 | 20219 ft | 463 kts | 28° |
| 2026-05-04 02:52 | 35.01858 | 136.26117 | 20710 ft | 469 kts | 30° |
| 2026-05-04 02:52 | 35.04512 | 136.28468 | 21208 ft | 473 kts | 30° |
| 2026-05-04 02:52 | 35.07174 | 136.30865 | 21674 ft | 478 kts | 31° |
| 2026-05-04 02:52 | 35.09859 | 136.33308 | 22158 ft | 481 kts | 31° |
| 2026-05-04 02:53 | 35.12551 | 136.35772 | 22606 ft | 486 kts | 31° |
| 2026-05-04 02:53 | 35.15257 | 136.38263 | 23024 ft | 489 kts | 32° |
| 2026-05-04 02:53 | 35.17988 | 136.40775 | 23425 ft | 493 kts | 31° |
| 2026-05-04 02:53 | 35.20732 | 136.43302 | 23766 ft | 495 kts | 32° |
| 2026-05-04 02:54 | 35.23460 | 136.45811 | 24080 ft | 498 kts | 32° |
| 2026-05-04 02:54 | 35.26247 | 136.48379 | 24380 ft | 502 kts | 32° |
| 2026-05-04 02:54 | 35.29046 | 136.50957 | 24727 ft | 505 kts | 32° |
| 2026-05-04 02:54 | 35.31868 | 136.53553 | 25027 ft | 509 kts | 32° |
| 2026-05-04 02:55 | 35.37554 | 136.58788 | 25583 ft | 517 kts | 32° |
| 2026-05-04 02:55 | 35.40459 | 136.61471 | 25590 ft | 528 kts | 32° |
| 2026-05-04 02:55 | 35.43415 | 136.64205 | 25608 ft | 537 kts | 32° |
| 2026-05-04 02:56 | 35.46413 | 136.66983 | 25749 ft | 543 kts | 32° |
| 2026-05-04 02:56 | 35.49428 | 136.69781 | 26011 ft | 545 kts | 32° |
| 2026-05-04 02:56 | 35.52461 | 136.72597 | 26278 ft | 547 kts | 32° |
| 2026-05-04 02:56 | 35.55503 | 136.75425 | 26544 ft | 549 kts | 32° |
| 2026-05-04 02:57 | 35.58555 | 136.78264 | 26811 ft | 551 kts | 32° |
| 2026-05-04 02:57 | 35.61617 | 136.81117 | 27038 ft | 554 kts | 32° |
| 2026-05-04 02:57 | 35.64700 | 136.83986 | 27249 ft | 556 kts | 32° |
| 2026-05-04 02:57 | 35.67784 | 136.86864 | 27443 ft | 558 kts | 33° |
| 2026-05-04 02:58 | 35.70892 | 136.89769 | 27547 ft | 561 kts | 33° |
| 2026-05-04 02:58 | 35.74007 | 136.92674 | 27798 ft | 559 kts | 33° |
| 2026-05-04 02:58 | 35.77058 | 136.95528 | 28064 ft | 559 kts | 33° |
| 2026-05-04 02:58 | 35.80107 | 136.98385 | 28894 ft | 545 kts | 33° |
| 2026-05-04 02:59 | 35.83107 | 137.01201 | 29537 ft | 539 kts | 33° |
| 2026-05-04 02:59 | 35.86087 | 137.03998 | 29919 ft | 538 kts | 33° |
| 2026-05-04 02:59 | 35.89070 | 137.06801 | 30217 ft | 539 kts | 32° |
| 2026-05-04 02:59 | 35.92054 | 137.09602 | 30540 ft | 539 kts | 32° |
| 2026-05-04 03:00 | 35.95029 | 137.12401 | 30874 ft | 538 kts | 32° |
| 2026-05-04 03:00 | 35.97006 | 137.14260 | 31101 ft | 538 kts | 32° |
| 2026-05-04 03:00 | 35.99982 | 137.17067 | 31446 ft | 539 kts | 32° |
| 2026-05-04 03:00 | 36.02968 | 137.19882 | 31792 ft | 539 kts | 32° |
| 2026-05-04 03:01 | 36.05943 | 137.22691 | 32150 ft | 538 kts | 32° |
| 2026-05-04 03:01 | 36.08911 | 137.25497 | 32493 ft | 536 kts | 32° |
| 2026-05-04 03:01 | 36.11871 | 137.28298 | 32856 ft | 535 kts | 31° |
| 2026-05-04 03:01 | 36.15780 | 137.32001 | 33336 ft | 533 kts | 31° |
| 2026-05-04 03:02 | 36.17766 | 137.33884 | 33580 ft | 532 kts | 31° |
| 2026-05-04 03:02 | 36.20705 | 137.36674 | 33920 ft | 530 kts | 31° |
| 2026-05-04 03:02 | 36.23622 | 137.39448 | 34249 ft | 528 kts | 31° |
| 2026-05-04 03:02 | 36.26538 | 137.42219 | 34580 ft | 526 kts | 31° |
| 2026-05-04 03:03 | 36.29401 | 137.44945 | 34844 ft | 526 kts | 31° |
| 2026-05-04 03:03 | 36.32305 | 137.47708 | 35059 ft | 527 kts | 31° |
| 2026-05-04 03:03 | 36.35215 | 137.50481 | 35281 ft | 527 kts | 31° |
| 2026-05-04 03:03 | 36.38122 | 137.53257 | 35515 ft | 527 kts | 31° |
| 2026-05-04 03:04 | 36.41028 | 137.56035 | 35749 ft | 526 kts | 31° |
| 2026-05-04 03:04 | 36.43929 | 137.58809 | 35980 ft | 526 kts | 31° |
| 2026-05-04 03:04 | 36.46826 | 137.61582 | 36211 ft | 526 kts | 31° |
| 2026-05-04 03:04 | 36.49489 | 137.64134 | 36343 ft | 526 kts | 31° |
| 2026-05-04 03:05 | 36.52394 | 137.66919 | 36497 ft | 529 kts | 31° |
| 2026-05-04 03:05 | 36.55325 | 137.69701 | 36627 ft | 526 kts | 27° |
| 2026-05-04 03:05 | 36.58324 | 137.72212 | 36704 ft | 519 kts | 24° |
| 2026-05-04 03:06 | 36.64524 | 137.76924 | 36666 ft | 522 kts | 23° |
| 2026-05-04 03:06 | 36.70714 | 137.81678 | 36700 ft | 525 kts | 23° |
| 2026-05-04 03:07 | 36.76883 | 137.86459 | 36679 ft | 526 kts | 24° |
| 2026-05-04 03:07 | 36.83085 | 137.91283 | 36681 ft | 526 kts | 24° |
| 2026-05-04 03:08 | 36.89308 | 137.96135 | 36732 ft | 526 kts | 24° |
| 2026-05-04 03:08 | 36.92409 | 137.98555 | 36630 ft | 525 kts | 25° |
| 2026-05-04 03:08 | 36.95495 | 138.00967 | 36694 ft | 523 kts | 24° |
| 2026-05-04 03:09 | 37.01671 | 138.05803 | 36661 ft | 525 kts | 24° |
| 2026-05-04 03:09 | 37.07875 | 138.10668 | 36679 ft | 526 kts | 24° |
| 2026-05-04 03:10 | 37.14044 | 138.15516 | 36670 ft | 529 kts | 24° |
| 2026-05-04 03:10 | 37.20291 | 138.20436 | 36672 ft | 531 kts | 24° |
| 2026-05-04 03:11 | 37.26564 | 138.25386 | 36674 ft | 533 kts | 24° |
| 2026-05-04 03:11 | 37.32846 | 138.30354 | 36667 ft | 534 kts | 24° |
| 2026-05-04 03:12 | 37.39134 | 138.35335 | 36674 ft | 535 kts | 24° |
| 2026-05-04 03:12 | 37.45435 | 138.40337 | 36670 ft | 536 kts | 24° |
| 2026-05-04 03:13 | 37.51751 | 138.45361 | 36667 ft | 536 kts | 24° |
| 2026-05-04 03:13 | 37.58059 | 138.50390 | 36667 ft | 537 kts | 24° |
| 2026-05-04 03:14 | 37.64344 | 138.55409 | 36658 ft | 538 kts | 24° |
| 2026-05-04 03:14 | 37.70668 | 138.60470 | 36661 ft | 539 kts | 24° |
| 2026-05-04 03:15 | 37.77002 | 138.65550 | 36663 ft | 538 kts | 24° |
| 2026-05-04 03:15 | 37.83327 | 138.70632 | 36656 ft | 539 kts | 24° |
| 2026-05-04 03:16 | 37.89655 | 138.75728 | 36646 ft | 539 kts | 24° |
| 2026-05-04 03:16 | 37.95985 | 138.80836 | 36641 ft | 539 kts | 24° |
| 2026-05-04 03:17 | 38.02321 | 138.85960 | 36642 ft | 540 kts | 25° |
| 2026-05-04 03:17 | 38.08655 | 138.91092 | 36639 ft | 540 kts | 25° |
| 2026-05-04 03:18 | 38.14991 | 138.96246 | 36639 ft | 541 kts | 25° |
| 2026-05-04 03:18 | 38.21272 | 139.01394 | 36636 ft | 541 kts | 25° |
| 2026-05-04 03:19 | 38.27594 | 139.06584 | 36635 ft | 541 kts | 25° |
| 2026-05-04 03:19 | 38.33916 | 139.11784 | 36639 ft | 541 kts | 25° |
| 2026-05-04 03:20 | 38.40238 | 139.16993 | 36630 ft | 541 kts | 25° |
| 2026-05-04 03:20 | 38.46567 | 139.22219 | 36622 ft | 541 kts | 25° |
| 2026-05-04 03:21 | 38.52882 | 139.27445 | 36624 ft | 541 kts | 26° |
| 2026-05-04 03:21 | 38.59196 | 139.32681 | 36622 ft | 541 kts | 26° |
| 2026-05-04 03:22 | 38.65513 | 139.37931 | 36614 ft | 541 kts | 26° |
| 2026-05-04 03:22 | 38.71781 | 139.43151 | 36613 ft | 541 kts | 26° |
| 2026-05-04 03:23 | 38.78092 | 139.48418 | 36608 ft | 541 kts | 26° |
| 2026-05-04 03:23 | 38.84398 | 139.53691 | 36609 ft | 540 kts | 26° |
| 2026-05-04 03:24 | 38.90698 | 139.58972 | 36611 ft | 541 kts | 26° |
| 2026-05-04 03:24 | 38.96998 | 139.64264 | 36607 ft | 541 kts | 27° |
| 2026-05-04 03:25 | 39.03336 | 139.69481 | 36612 ft | 536 kts | 20° |
| 2026-05-04 03:25 | 39.10044 | 139.73215 | 36600 ft | 528 kts | 12° |
| 2026-05-04 03:26 | 39.16844 | 139.76759 | 36590 ft | 527 kts | 13° |
| 2026-05-04 03:26 | 39.23633 | 139.80371 | 36592 ft | 528 kts | 13° |
| 2026-05-04 03:27 | 39.30424 | 139.84017 | 36584 ft | 528 kts | 13° |
| 2026-05-04 03:27 | 39.37221 | 139.87679 | 36584 ft | 528 kts | 13° |
| 2026-05-04 03:28 | 39.44013 | 139.91348 | 36574 ft | 529 kts | 14° |
| 2026-05-04 03:28 | 39.50779 | 139.95012 | 36566 ft | 530 kts | 14° |
| 2026-05-04 03:29 | 39.57591 | 139.98708 | 36561 ft | 531 kts | 14° |
| 2026-05-04 03:29 | 39.64404 | 140.02414 | 36555 ft | 531 kts | 14° |
| 2026-05-04 03:30 | 39.71193 | 140.06239 | 36556 ft | 538 kts | 22° |
| 2026-05-04 03:30 | 39.74359 | 140.08919 | 36589 ft | 547 kts | 33° |
| 2026-05-04 03:30 | 39.77362 | 140.11986 | 36577 ft | 550 kts | 34° |
| 2026-05-04 03:31 | 39.83370 | 140.18120 | 36312 ft | 553 kts | 33° |
| 2026-05-04 03:31 | 39.86433 | 140.21179 | 35900 ft | 554 kts | 33° |
| 2026-05-04 03:31 | 39.89468 | 140.24199 | 35111 ft | 563 kts | 33° |
| 2026-05-04 03:31 | 39.92589 | 140.27299 | 34386 ft | 565 kts | 32° |
| 2026-05-04 03:32 | 39.95719 | 140.30417 | 33855 ft | 559 kts | 32° |
| 2026-05-04 03:32 | 39.98732 | 140.33435 | 34334 ft | 543 kts | 32° |
| 2026-05-04 03:32 | 40.01796 | 140.36488 | 33223 ft | 566 kts | 32° |
| 2026-05-04 03:32 | 40.04977 | 140.39647 | 31764 ft | 582 kts | 33° |
| 2026-05-04 03:33 | 40.08220 | 140.42894 | 30495 ft | 593 kts | 33° |
| 2026-05-04 03:33 | 40.11465 | 140.46157 | 29805 ft | 585 kts | 34° |
| 2026-05-04 03:33 | 40.14688 | 140.49393 | 28969 ft | 581 kts | 34° |
| 2026-05-04 03:33 | 40.17875 | 140.52598 | 28190 ft | 575 kts | 34° |
| 2026-05-04 03:34 | 40.21022 | 140.55761 | 27472 ft | 567 kts | 34° |
| 2026-05-04 03:34 | 40.24145 | 140.58903 | 26686 ft | 562 kts | 34° |
| 2026-05-04 03:34 | 40.27233 | 140.61989 | 25957 ft | 555 kts | 31° |
| 2026-05-04 03:34 | 40.30547 | 140.64389 | 25236 ft | 533 kts | 12° |
| 2026-05-04 03:35 | 40.34043 | 140.65418 | 24606 ft | 500 kts | 352° |
| 2026-05-04 03:35 | 40.37419 | 140.65596 | 23927 ft | 490 kts | 349° |
| 2026-05-04 03:35 | 40.40839 | 140.65807 | 23248 ft | 490 kts | 352° |
| 2026-05-04 03:35 | 40.44235 | 140.66182 | 22535 ft | 488 kts | 353° |
| 2026-05-04 03:36 | 40.47585 | 140.66626 | 21938 ft | 479 kts | 354° |
| 2026-05-04 03:36 | 40.50888 | 140.67091 | 21286 ft | 474 kts | 355° |
| 2026-05-04 03:36 | 40.54137 | 140.67565 | 20650 ft | 467 kts | 355° |
| 2026-05-04 03:36 | 40.57340 | 140.68051 | 20033 ft | 458 kts | 355° |
| 2026-05-04 03:37 | 40.60483 | 140.68535 | 19422 ft | 450 kts | 355° |
| 2026-05-04 03:37 | 40.63567 | 140.68994 | 18861 ft | 442 kts | 356° |
| 2026-05-04 03:37 | 40.66615 | 140.69446 | 18249 ft | 438 kts | 356° |
| 2026-05-04 03:37 | 40.69581 | 140.69887 | 17660 ft | 432 kts | 356° |
| 2026-05-04 03:38 | 40.72543 | 140.70337 | 17110 ft | 423 kts | 356° |
| 2026-05-04 03:38 | 40.75437 | 140.70771 | 16546 ft | 414 kts | 356° |
| 2026-05-04 03:38 | 40.78270 | 140.71119 | 15999 ft | 404 kts | 354° |
| 2026-05-04 03:38 | 40.81054 | 140.71431 | 15492 ft | 396 kts | 355° |
| 2026-05-04 03:39 | 40.83740 | 140.71746 | 15238 ft | 381 kts | 355° |
| 2026-05-04 03:39 | 40.86414 | 140.72049 | 14501 ft | 385 kts | 355° |
| 2026-05-04 03:39 | 40.89061 | 140.72359 | 13973 ft | 379 kts | 355° |
| 2026-05-04 03:39 | 40.91670 | 140.72671 | 13470 ft | 374 kts | 356° |
| 2026-05-04 03:40 | 40.94157 | 140.72979 | 13541 ft | 359 kts | 355° |
| 2026-05-04 03:40 | 40.96698 | 140.73271 | 13033 ft | 370 kts | 356° |
| 2026-05-04 03:40 | 40.99247 | 140.73579 | 12542 ft | 363 kts | 356° |
| 2026-05-04 03:40 | 41.01734 | 140.73884 | 12047 ft | 354 kts | 356° |
| 2026-05-04 03:41 | 41.04153 | 140.74191 | 11594 ft | 345 kts | 356° |
| 2026-05-04 03:41 | 41.06520 | 140.74487 | 11141 ft | 337 kts | 356° |
| 2026-05-04 03:41 | 41.08832 | 140.74777 | 10690 ft | 331 kts | 356° |
| 2026-05-04 03:41 | 41.11100 | 140.75061 | 10264 ft | 325 kts | 356° |
| 2026-05-04 03:42 | 41.13336 | 140.75334 | 9800 ft | 320 kts | 356° |
| 2026-05-04 03:42 | 41.15538 | 140.75601 | 9385 ft | 314 kts | 356° |
| 2026-05-04 03:42 | 41.17700 | 140.75865 | 8961 ft | 309 kts | 356° |
| 2026-05-04 03:42 | 41.19822 | 140.76125 | 8571 ft | 304 kts | 356° |
| 2026-05-04 03:43 | 41.21893 | 140.76377 | 8171 ft | 301 kts | 355° |
| 2026-05-04 03:43 | 41.23964 | 140.76630 | 7941 ft | 293 kts | 355° |
| 2026-05-04 03:43 | 41.26028 | 140.76880 | 7415 ft | 304 kts | 355° |
| 2026-05-04 03:43 | 41.28129 | 140.77131 | 6998 ft | 302 kts | 356° |
| 2026-05-04 03:44 | 41.30212 | 140.77391 | 6574 ft | 299 kts | 356° |
| 2026-05-04 03:44 | 41.32272 | 140.77645 | 6182 ft | 296 kts | 355° |
| 2026-05-04 03:44 | 41.34310 | 140.77896 | 5838 ft | 293 kts | 355° |
| 2026-05-04 03:44 | 41.36344 | 140.78144 | 5425 ft | 292 kts | 355° |
| 2026-05-04 03:45 | 41.38351 | 140.78395 | 5045 ft | 287 kts | 355° |
| 2026-05-04 03:45 | 41.40317 | 140.78640 | 4652 ft | 279 kts | 355° |
| 2026-05-04 03:45 | 41.42204 | 140.78880 | 4291 ft | 265 kts | 355° |
| 2026-05-04 03:45 | 41.43984 | 140.79109 | 4027 ft | 249 kts | 354° |
| 2026-05-04 03:46 | 41.45649 | 140.79452 | 4001 ft | 242 kts | 6° |
| 2026-05-04 03:46 | 41.47231 | 140.80224 | 3705 ft | 248 kts | 12° |
| 2026-05-04 03:46 | 41.48828 | 140.81096 | 3387 ft | 243 kts | 12° |
| 2026-05-04 03:46 | 41.50347 | 140.81897 | 3279 ft | 227 kts | 10° |
| 2026-05-04 03:47 | 41.51793 | 140.82609 | 3167 ft | 216 kts | 8° |
| 2026-05-04 03:47 | 41.53198 | 140.83272 | 3062 ft | 213 kts | 8° |
| 2026-05-04 03:47 | 41.54592 | 140.83919 | 2979 ft | 212 kts | 8° |
| 2026-05-04 03:47 | 41.55986 | 140.84564 | 2890 ft | 211 kts | 8° |
| 2026-05-04 03:48 | 41.57355 | 140.85202 | 2794 ft | 207 kts | 8° |
| 2026-05-04 03:48 | 41.58710 | 140.85835 | 2641 ft | 204 kts | 8° |
| 2026-05-04 03:48 | 41.60040 | 140.86456 | 2588 ft | 201 kts | 8° |
| 2026-05-04 03:48 | 41.61375 | 140.87072 | 2484 ft | 205 kts | 8° |
| 2026-05-04 03:49 | 41.62708 | 140.87693 | 2472 ft | 200 kts | 8° |
| 2026-05-04 03:49 | 41.63975 | 140.88298 | 2511 ft | 188 kts | 7° |
| 2026-05-04 03:49 | 41.65194 | 140.88868 | 2455 ft | 182 kts | 6° |
| 2026-05-04 03:49 | 41.66378 | 140.89417 | 2455 ft | 179 kts | 6° |
| 2026-05-04 03:50 | 41.67551 | 140.89959 | 2473 ft | 177 kts | 6° |
| 2026-05-04 03:50 | 41.68715 | 140.90497 | 2458 ft | 177 kts | 6° |
| 2026-05-04 03:50 | 41.69849 | 140.91030 | 2290 ft | 167 kts | 7° |
| 2026-05-04 03:50 | 41.70929 | 140.91502 | 2045 ft | 158 kts | 0° |
| 2026-05-04 03:51 | 41.71629 | 140.91655 | 1835 ft | 150 kts | 350° |
| 2026-05-04 03:51 | 41.72876 | 140.91462 | 1409 ft | 127 kts | 327° |
| 2026-05-04 03:51 | 41.73664 | 140.90993 | 1199 ft | 121 kts | 315° |
| 2026-05-04 03:51 | 41.74333 | 140.90355 | 1068 ft | 117 kts | 306° |
| 2026-05-04 03:52 | 41.74904 | 140.89564 | 967 ft | 118 kts | 295° |
| 2026-05-04 03:52 | 41.75218 | 140.88970 | 959 ft | 114 kts | 289° |
| 2026-05-04 03:52 | 41.75577 | 140.88034 | 883 ft | 113 kts | 279° |
| 2026-05-04 03:52 | 41.75833 | 140.87009 | 733 ft | 118 kts | 279° |
| 2026-05-04 03:53 | 41.76095 | 140.85963 | 525 ft | 118 kts | 278° |
| 2026-05-04 03:53 | 41.76351 | 140.84945 | 338 ft | 114 kts | 278° |
| 2026-05-04 03:53 | 41.76598 | 140.83933 | 204 ft | 115 kts | 277° |
| 2026-05-04 03:53 | 41.76822 | 140.83003 | 140 ft | 86 kts | 289° |
| 2026-05-04 03:54 | 41.76960 | 140.82434 | 136 ft | 53 kts | 287° |
| 2026-05-04 03:54 | 41.77062 | 140.82013 | 125 ft | 42 kts | 288° |
| 2026-05-04 03:54 | 41.77137 | 140.81717 | 120 ft | 17 kts | 290° |
| 2026-05-04 03:54 | 41.77218 | 140.81664 | 119 ft | 14 kts | 18° |
| 2026-05-04 03:55 | 41.77308 | 140.81666 | 122 ft | 13 kts | 329° |
| 2026-05-04 03:55 | 41.77391 | 140.81662 | 119 ft | 13 kts | 17° |
| 2026-05-04 03:55 | 41.77451 | 140.81688 | 117 ft | 3 kts | 17° |
| 2026-05-04 03:55 | 41.77461 | 140.81692 | 117 ft | 0 kts | 17° |